createdAt,value
2022-09-15T00:00:05.512Z,9.443701
2022-09-15T00:01:05.547Z,9.443680
2022-09-15T00:02:05.652Z,9.443702
2022-09-15T00:03:05.543Z,9.443725
2022-09-15T00:04:05.480Z,9.443761
2022-09-15T00:05:05.476Z,9.443762
2022-09-15T00:06:05.467Z,9.443729
2022-09-15T00:07:05.477Z,9.443755
2022-09-15T00:08:05.467Z,9.443788
2022-09-15T00:09:05.490Z,9.443803
2022-09-15T00:10:05.439Z,9.443823
2022-09-15T00:11:05.441Z,9.443842
2022-09-15T00:12:05.438Z,9.443830
2022-09-15T00:13:05.447Z,9.443784
2022-09-15T00:14:05.427Z,9.443718
2022-09-15T00:15:05.423Z,9.443756
2022-09-15T00:16:05.399Z,9.443752
2022-09-15T00:17:05.456Z,9.443792
2022-09-15T00:18:05.412Z,9.443807
2022-09-15T00:19:05.385Z,9.443753
2022-09-15T00:20:05.381Z,9.443735
2022-09-15T00:21:05.383Z,9.443761
2022-09-15T00:22:05.371Z,9.443784
2022-09-15T00:23:05.412Z,9.443764
2022-09-15T00:24:05.353Z,9.443757
2022-09-15T00:25:05.351Z,9.443738
2022-09-15T00:26:05.355Z,9.443707
2022-09-15T00:27:05.343Z,9.443723
2022-09-15T00:28:05.327Z,9.443756
2022-09-15T00:29:05.342Z,9.443752
2022-09-15T00:30:05.313Z,9.443769
2022-09-15T00:31:05.381Z,9.443762
2022-09-15T00:32:05.299Z,9.443733
2022-09-15T00:33:05.297Z,9.443711
2022-09-15T00:34:05.287Z,9.443785
2022-09-15T00:35:05.279Z,9.443785
2022-09-15T00:36:05.275Z,9.443775
2022-09-15T00:37:05.272Z,9.443814
2022-09-15T00:38:05.275Z,9.443737
2022-09-15T00:39:05.253Z,9.443698
2022-09-15T00:40:05.307Z,9.443726
2022-09-15T00:41:05.256Z,9.443842
2022-09-15T00:42:05.239Z,9.443673
2022-09-15T00:43:05.234Z,9.443647
2022-09-15T00:44:05.251Z,9.443724
2022-09-15T00:45:05.235Z,9.443685
2022-09-15T00:46:05.251Z,9.443636
2022-09-15T00:47:18.661Z,9.443659
2022-09-15T00:48:07.190Z,9.443699
2022-09-15T00:49:05.183Z,9.443707
2022-09-15T00:50:05.232Z,9.443733
2022-09-15T00:51:05.183Z,9.443745
2022-09-15T00:52:05.167Z,9.443756
2022-09-15T00:53:05.167Z,9.443779
2022-09-15T00:54:05.144Z,9.443747
2022-09-15T00:55:05.182Z,9.443715
2022-09-15T00:56:05.158Z,9.443752
2022-09-15T00:57:05.146Z,9.443735
2022-09-15T00:58:05.139Z,9.443726
2022-09-15T00:59:05.122Z,9.443716
2022-09-15T01:00:05.120Z,9.443542
2022-09-15T01:01:05.748Z,9.443647
2022-09-15T01:02:05.154Z,9.443707
2022-09-15T01:03:05.095Z,9.443706
2022-09-15T01:04:05.105Z,9.443709
2022-09-15T01:05:05.096Z,9.443670
2022-09-15T01:06:05.158Z,9.443626
2022-09-15T01:07:05.072Z,9.443492
2022-09-15T01:08:05.074Z,9.443619
2022-09-15T01:09:05.055Z,9.443708
2022-09-15T01:10:05.058Z,9.443765
2022-09-15T01:11:05.038Z,9.443772
2022-09-15T01:12:05.040Z,9.443769
2022-09-15T01:13:05.026Z,9.443740
2022-09-15T01:14:05.062Z,9.443692
2022-09-15T01:15:05.012Z,9.443656
2022-09-15T01:16:05.037Z,9.443685
2022-09-15T01:17:05.006Z,9.443737
2022-09-15T01:18:05.057Z,9.443742
2022-09-15T01:19:05.031Z,9.443727
2022-09-15T01:20:04.987Z,9.443737
2022-09-15T01:21:04.971Z,9.443722
2022-09-15T01:22:04.962Z,9.443679
2022-09-15T01:23:04.966Z,9.443666
2022-09-15T01:24:04.952Z,9.443685
2022-09-15T01:25:04.959Z,9.443783
2022-09-15T01:26:04.966Z,9.443752
2022-09-15T01:27:18.761Z,9.443751
2022-09-15T01:28:06.995Z,9.443740
2022-09-15T01:29:04.927Z,9.443781
2022-09-15T01:30:04.938Z,9.443712
2022-09-15T01:31:04.907Z,9.443734
2022-09-15T01:32:05.004Z,9.443774
2022-09-15T01:33:04.911Z,9.443813
2022-09-15T01:34:04.950Z,9.443838
2022-09-15T01:35:04.886Z,9.443789
2022-09-15T01:36:04.895Z,9.443875
2022-09-15T01:37:04.863Z,9.443847
2022-09-15T01:38:04.859Z,9.443800
2022-09-15T01:39:04.852Z,9.443746
2022-09-15T01:40:04.875Z,9.443809
2022-09-15T01:41:04.865Z,9.443815
2022-09-15T01:42:04.828Z,9.443769
2022-09-15T01:43:04.819Z,9.443748
2022-09-15T01:44:04.816Z,9.443713
2022-09-15T01:45:04.815Z,9.443714
2022-09-15T01:46:04.899Z,9.443748
2022-09-15T01:47:04.792Z,9.443713
2022-09-15T01:48:04.796Z,9.443810
2022-09-15T01:49:04.790Z,9.443761
2022-09-15T01:50:04.775Z,9.443733
2022-09-15T01:51:04.763Z,9.443671
2022-09-15T01:52:04.771Z,9.443671
2022-09-15T01:53:04.758Z,9.443694
2022-09-15T01:54:04.755Z,9.443666
2022-09-15T01:55:04.739Z,9.443668
2022-09-15T01:56:04.735Z,9.443569
2022-09-15T01:57:04.751Z,9.443485
2022-09-15T01:58:04.724Z,9.443641
2022-09-15T01:59:04.719Z,9.443531
2022-09-15T02:00:04.719Z,9.443640
2022-09-15T02:01:04.773Z,9.443780
2022-09-15T02:02:04.766Z,9.443766
2022-09-15T02:03:04.731Z,9.443690
2022-09-15T02:04:04.687Z,9.443761
2022-09-15T02:05:04.681Z,9.443646
2022-09-15T02:06:04.682Z,9.443668
2022-09-15T02:07:04.683Z,9.443689
2022-09-15T02:08:04.663Z,9.443705
2022-09-15T02:09:04.646Z,9.443748
2022-09-15T02:10:04.634Z,9.443763
2022-09-15T02:11:05.642Z,9.443765
2022-09-15T02:12:04.642Z,9.443743
2022-09-15T02:13:04.658Z,9.443698
2022-09-15T02:14:04.610Z,9.443707
2022-09-15T02:15:04.618Z,9.443703
2022-09-15T02:16:04.652Z,9.443679
2022-09-15T02:17:04.607Z,9.443668
2022-09-15T02:18:04.610Z,9.443652
2022-09-15T02:19:04.578Z,9.443656
2022-09-15T02:20:04.584Z,9.443675
2022-09-15T02:21:04.586Z,9.443665
2022-09-15T02:22:04.575Z,9.443672
2022-09-15T02:23:04.574Z,9.443658
2022-09-15T02:24:04.574Z,9.443701
2022-09-15T02:25:04.545Z,9.443709
2022-09-15T02:26:04.538Z,9.443730
2022-09-15T02:27:04.547Z,9.443751
2022-09-15T02:28:04.547Z,9.443772
2022-09-15T02:29:04.518Z,9.443717
2022-09-15T02:30:04.578Z,9.443695
2022-09-15T02:31:04.574Z,9.443730
2022-09-15T02:32:07.280Z,9.443674
2022-09-15T02:33:05.514Z,9.443578
2022-09-15T02:34:04.494Z,9.443741
2022-09-15T02:35:04.514Z,9.443736
2022-09-15T02:36:04.470Z,9.443737
2022-09-15T02:37:04.478Z,9.443794
2022-09-15T02:38:04.486Z,9.443717
2022-09-15T02:39:04.462Z,9.443763
2022-09-15T02:40:04.540Z,9.443779
2022-09-15T02:41:04.439Z,9.443725
2022-09-15T02:42:04.429Z,9.443765
2022-09-15T02:43:04.429Z,9.443776
2022-09-15T02:44:04.441Z,9.443752
2022-09-15T02:45:04.414Z,9.443727
2022-09-15T02:46:04.502Z,9.443753
2022-09-15T02:47:04.407Z,9.443773
2022-09-15T02:48:04.402Z,9.443828
2022-09-15T02:49:04.410Z,9.443849
2022-09-15T02:50:04.377Z,9.443697
2022-09-15T02:51:04.391Z,9.443776
2022-09-15T02:52:04.381Z,9.443744
2022-09-15T02:53:04.361Z,9.443756
2022-09-15T02:54:04.358Z,9.443746
2022-09-15T02:55:04.354Z,9.443759
2022-09-15T02:56:04.345Z,9.443765
2022-09-15T02:57:04.353Z,9.443793
2022-09-15T02:58:04.329Z,9.443810
2022-09-15T02:59:04.320Z,9.443788
2022-09-15T03:00:04.317Z,9.443758
2022-09-15T03:01:04.394Z,9.443722
2022-09-15T03:02:04.346Z,9.443732
2022-09-15T03:03:04.296Z,9.443694
2022-09-15T03:04:04.301Z,9.443727
2022-09-15T03:05:04.297Z,9.443643
2022-09-15T03:06:04.278Z,9.443628
2022-09-15T03:07:04.308Z,9.443666
2022-09-15T03:08:04.272Z,9.443584
2022-09-15T03:09:04.266Z,9.443551
2022-09-15T03:10:04.285Z,9.443514
2022-09-15T03:11:04.269Z,9.443602
2022-09-15T03:12:04.273Z,9.443663
2022-09-15T03:13:04.737Z,9.443785
2022-09-15T03:14:04.241Z,9.443647
2022-09-15T03:15:04.221Z,9.443575
2022-09-15T03:16:04.272Z,9.443632
2022-09-15T03:17:04.201Z,9.443730
2022-09-15T03:18:04.223Z,9.443501
2022-09-15T03:19:04.209Z,9.443651
2022-09-15T03:20:04.254Z,9.443639
2022-09-15T03:23:30.722Z,9.443752
2022-09-15T03:24:30.713Z,9.443601
2022-09-15T03:25:30.742Z,9.443719
2022-09-15T03:26:30.709Z,9.443804
2022-09-15T03:27:30.714Z,9.443981
2022-09-15T03:28:30.699Z,9.443737
2022-09-15T03:29:30.690Z,9.443657
2022-09-15T03:30:30.690Z,9.443459
2022-09-15T03:31:30.714Z,9.443636
2022-09-15T03:32:30.677Z,9.443840
2022-09-15T03:33:30.644Z,9.443856
2022-09-15T03:34:30.661Z,9.443768
2022-09-15T03:35:30.673Z,9.443807
2022-09-15T03:36:30.646Z,9.443710
2022-09-15T03:37:30.633Z,9.443613
2022-09-15T03:38:30.620Z,9.443415
2022-09-15T03:39:30.612Z,9.443658
2022-09-15T03:40:30.660Z,9.443531
2022-09-15T03:41:30.634Z,9.443675
2022-09-15T03:42:30.602Z,9.443420
2022-09-15T03:43:30.608Z,9.443664
2022-09-15T03:44:30.584Z,9.443749
2022-09-15T03:45:30.631Z,9.443732
2022-09-15T03:46:30.593Z,9.443737
2022-09-15T03:47:30.565Z,9.443732
2022-09-15T03:48:30.551Z,9.443630
2022-09-15T03:49:30.551Z,9.443733
2022-09-15T03:50:30.568Z,9.443816
2022-09-15T03:51:30.559Z,9.443605
2022-09-15T03:52:30.531Z,9.443672
2022-09-15T03:53:30.518Z,9.443624
2022-09-15T03:54:30.534Z,9.443512
2022-09-15T03:55:30.515Z,9.443613
2022-09-15T03:56:30.519Z,9.443500
2022-09-15T03:57:30.527Z,9.443483
2022-09-15T03:58:31.010Z,9.443605
2022-09-15T03:59:31.505Z,9.443683
2022-09-15T04:00:30.504Z,9.443689
2022-09-15T04:01:30.638Z,9.443849
2022-09-15T04:02:30.457Z,9.443682
2022-09-15T04:03:30.490Z,9.443607
2022-09-15T04:04:30.459Z,9.443433
2022-09-15T04:05:30.436Z,9.443560
2022-09-15T04:06:30.425Z,9.443494
2022-09-15T04:07:31.426Z,9.443543
2022-09-15T04:08:30.436Z,9.443532
2022-09-15T04:09:30.435Z,9.443476
2022-09-15T04:10:30.434Z,9.443563
2022-09-15T04:11:30.411Z,9.443536
2022-09-15T04:12:30.398Z,9.443564
2022-09-15T04:13:30.387Z,9.443579
2022-09-15T04:14:30.411Z,9.443624
2022-09-15T04:15:30.443Z,9.443514
2022-09-15T04:16:30.430Z,9.443475
2022-09-15T04:17:30.378Z,9.443748
2022-09-15T04:18:30.366Z,9.443863
2022-09-15T04:19:30.354Z,9.443594
2022-09-15T04:20:30.367Z,9.443402
2022-09-15T04:21:30.357Z,9.443404
2022-09-15T04:22:30.332Z,9.443564
2022-09-15T04:23:30.363Z,9.443525
2022-09-15T04:24:30.332Z,9.443513
2022-09-15T04:25:30.331Z,9.443366
2022-09-15T04:26:30.315Z,9.443460
2022-09-15T04:27:30.297Z,9.443601
2022-09-15T04:28:30.278Z,9.443599
2022-09-15T04:29:30.307Z,9.443687
2022-09-15T04:30:31.395Z,9.443627
2022-09-15T04:31:30.404Z,9.443558
2022-09-15T04:32:30.258Z,9.443452
2022-09-15T04:33:30.266Z,9.443530
2022-09-15T04:34:30.318Z,9.443708
2022-09-15T04:35:30.274Z,9.443669
2022-09-15T04:36:30.238Z,9.443716
2022-09-15T04:37:30.233Z,9.443754
2022-09-15T04:38:30.258Z,9.443559
2022-09-15T04:39:30.335Z,9.443653
2022-09-15T04:40:30.275Z,9.443513
2022-09-15T04:41:30.193Z,9.443459
2022-09-15T04:42:30.203Z,9.443551
2022-09-15T04:43:30.335Z,9.443602
2022-09-15T04:44:30.177Z,9.443701
2022-09-15T04:45:30.304Z,9.443668
2022-09-15T04:46:30.260Z,9.443791
2022-09-15T04:47:30.172Z,9.443818
2022-09-15T04:48:30.176Z,9.443743
2022-09-15T04:49:30.167Z,9.443672
2022-09-15T04:50:30.747Z,9.443675
2022-09-15T04:51:30.128Z,9.443729
2022-09-15T04:52:30.251Z,9.443695
2022-09-15T04:53:30.127Z,9.443726
2022-09-15T04:54:30.143Z,9.443672
2022-09-15T04:55:30.102Z,9.443630
2022-09-15T04:56:30.125Z,9.443592
2022-09-15T04:57:30.086Z,9.443681
2022-09-15T04:58:30.081Z,9.443629
2022-09-15T04:59:30.109Z,9.443659
2022-09-15T05:00:30.241Z,9.443707
2022-09-15T05:01:30.063Z,9.443630
2022-09-15T05:02:30.202Z,9.443692
2022-09-15T05:03:30.056Z,9.443664
2022-09-15T05:04:30.072Z,9.443675
2022-09-15T05:05:30.035Z,9.443730
2022-09-15T05:06:30.040Z,9.443737
2022-09-15T05:07:30.027Z,9.443727
2022-09-15T05:08:30.844Z,9.443716
2022-09-15T05:09:30.042Z,9.443735
2022-09-15T05:10:30.031Z,9.443749
2022-09-15T05:11:30.006Z,9.443756
2022-09-15T05:12:29.990Z,9.443720
2022-09-15T05:13:29.991Z,9.443706
2022-09-15T05:14:30.030Z,9.443696
2022-09-15T05:15:29.986Z,9.443716
2022-09-15T05:16:30.124Z,9.443735
2022-09-15T05:17:29.956Z,9.443721
2022-09-15T05:18:29.955Z,9.443716
2022-09-15T05:19:29.954Z,9.443727
2022-09-15T05:20:29.937Z,9.443715
2022-09-15T05:21:29.969Z,9.443679
2022-09-15T05:22:29.925Z,9.443749
2022-09-15T05:23:29.942Z,9.443739
2022-09-15T05:24:29.909Z,9.443769
2022-09-15T05:25:29.909Z,9.443761
2022-09-15T05:26:29.899Z,9.443737
2022-09-15T05:27:29.909Z,9.443749
2022-09-15T05:28:29.892Z,9.443769
2022-09-15T05:29:29.880Z,9.443777
2022-09-15T05:30:38.746Z,9.443742
2022-09-15T05:31:31.985Z,9.443725
2022-09-15T05:32:29.929Z,9.443728
2022-09-15T05:33:29.859Z,9.443774
2022-09-15T05:34:29.853Z,9.443822
2022-09-15T05:35:29.853Z,9.443769
2022-09-15T05:36:29.881Z,9.443767
2022-09-15T05:37:29.824Z,9.443771
2022-09-15T05:38:29.849Z,9.443787
2022-09-15T05:39:29.833Z,9.443748
2022-09-15T05:40:29.839Z,9.443760
2022-09-15T05:41:29.806Z,9.443747
2022-09-15T05:42:29.810Z,9.443686
2022-09-15T05:43:29.785Z,9.443713
2022-09-15T05:44:29.787Z,9.443684
2022-09-15T05:45:30.816Z,9.443709
2022-09-15T05:46:29.852Z,9.443742
2022-09-15T05:47:29.750Z,9.443753
2022-09-15T05:48:29.753Z,9.443746
2022-09-15T05:49:29.821Z,9.443774
2022-09-15T05:50:29.771Z,9.443604
2022-09-15T05:51:29.750Z,9.443602
2022-09-15T05:52:29.730Z,9.443774
2022-09-15T05:53:29.710Z,9.443772
2022-09-15T05:54:29.715Z,9.443741
2022-09-15T05:55:29.695Z,9.443654
2022-09-15T05:56:29.707Z,9.443553
2022-09-15T05:57:29.726Z,9.443741
2022-09-15T05:58:29.678Z,9.443755
2022-09-15T05:59:29.683Z,9.443730
2022-09-15T06:00:29.664Z,9.443751
2022-09-15T06:01:29.751Z,9.443767
2022-09-15T06:02:29.690Z,9.443747
2022-09-15T06:03:31.141Z,9.444027
2022-09-15T06:04:30.641Z,9.443748
2022-09-15T06:05:29.646Z,9.443771
2022-09-15T06:06:29.634Z,9.443804
2022-09-15T06:07:29.631Z,9.443798
2022-09-15T06:08:29.611Z,9.443701
2022-09-15T06:09:29.618Z,9.443699
2022-09-15T06:10:29.604Z,9.443719
2022-09-15T06:11:30.381Z,9.443708
2022-09-15T06:12:29.592Z,9.443691
2022-09-15T06:13:29.587Z,9.443788
2022-09-15T06:14:29.593Z,9.443839
2022-09-15T06:15:29.581Z,9.443731
2022-09-15T06:16:29.606Z,9.443719
2022-09-15T06:17:29.555Z,9.443736
2022-09-15T06:18:29.555Z,9.443741
2022-09-15T06:19:29.542Z,9.443748
2022-09-15T06:20:29.544Z,9.443764
2022-09-15T06:21:29.596Z,9.443754
2022-09-15T06:22:29.519Z,9.443747
2022-09-15T06:23:29.510Z,9.443708
2022-09-15T06:24:29.524Z,9.443675
2022-09-15T06:25:29.510Z,9.443716
2022-09-15T06:26:29.515Z,9.443620
2022-09-15T06:27:29.491Z,9.443655
2022-09-15T06:28:29.470Z,9.443749
2022-09-15T06:29:29.481Z,9.443774
2022-09-15T06:30:29.473Z,9.443759
2022-09-15T06:31:29.498Z,9.443765
2022-09-15T06:32:29.468Z,9.443769
2022-09-15T06:33:29.551Z,9.443763
2022-09-15T06:34:29.458Z,9.443744
2022-09-15T06:35:29.441Z,9.443785
2022-09-15T06:36:29.450Z,9.443676
2022-09-15T06:37:29.482Z,9.443791
2022-09-15T06:38:29.422Z,9.443589
2022-09-15T06:39:29.413Z,9.443666
2022-09-15T06:40:29.470Z,9.443679
2022-09-15T06:41:38.159Z,9.443764
2022-09-15T06:42:31.415Z,9.443774
2022-09-15T06:43:29.407Z,9.443627
2022-09-15T06:44:29.406Z,9.443742
2022-09-15T06:45:29.367Z,9.443702
2022-09-15T06:46:29.457Z,9.443859
2022-09-15T06:47:29.362Z,9.443680
2022-09-15T06:48:29.370Z,9.443739
2022-09-15T06:49:29.351Z,9.443727
2022-09-15T06:50:29.363Z,9.443708
2022-09-15T06:51:29.338Z,9.443739
2022-09-15T06:52:29.359Z,9.443753
2022-09-15T06:53:29.342Z,9.443731
2022-09-15T06:54:29.321Z,9.443692
2022-09-15T06:55:30.326Z,9.443709
2022-09-15T06:56:29.330Z,9.443701
2022-09-15T06:57:29.305Z,9.443655
2022-09-15T06:58:29.310Z,9.443680
2022-09-15T06:59:29.287Z,9.443730
2022-09-15T07:00:29.313Z,9.443682
2022-09-15T07:01:29.274Z,9.443622
2022-09-15T07:02:29.395Z,9.443724
2022-09-15T07:03:29.460Z,9.443775
2022-09-15T07:04:29.249Z,9.443695
2022-09-15T07:05:29.270Z,9.443705
2022-09-15T07:06:29.243Z,9.443583
2022-09-15T07:07:29.250Z,9.443624
2022-09-15T07:08:29.234Z,9.443745
2022-09-15T07:09:29.222Z,9.443744
2022-09-15T07:10:29.240Z,9.443748
2022-09-15T07:11:29.217Z,9.443757
2022-09-15T07:12:29.252Z,9.443748
2022-09-15T07:13:29.197Z,9.443716
2022-09-15T07:14:29.194Z,9.443701
2022-09-15T07:15:29.234Z,9.443651
2022-09-15T07:16:29.262Z,9.443706
2022-09-15T07:17:29.173Z,9.443645
2022-09-15T07:18:29.230Z,9.443605
2022-09-15T07:19:29.157Z,9.443759
2022-09-15T07:20:29.214Z,9.443732
2022-09-15T07:21:29.163Z,9.443651
2022-09-15T07:22:29.151Z,9.443723
2022-09-15T07:23:29.180Z,9.443796
2022-09-15T07:24:29.135Z,9.443748
2022-09-15T07:25:29.139Z,9.443704
2022-09-15T07:26:29.126Z,9.443739
2022-09-15T07:27:29.123Z,9.443792
2022-09-15T07:28:29.117Z,9.443791
2022-09-15T07:29:29.108Z,9.443775
2022-09-15T07:30:29.128Z,9.443731
2022-09-15T07:31:29.145Z,9.443787
2022-09-15T07:32:29.095Z,9.443818
2022-09-15T07:33:29.087Z,9.443809
2022-09-15T07:34:29.092Z,9.443801
2022-09-15T07:35:29.055Z,9.443822
2022-09-15T07:36:29.063Z,9.443830
2022-09-15T07:37:29.062Z,9.443791
2022-09-15T07:38:29.075Z,9.443851
2022-09-15T07:39:29.035Z,9.443884
2022-09-15T07:40:29.104Z,9.443966
2022-09-15T07:41:29.042Z,9.443894
2022-09-15T07:42:32.147Z,9.444003
2022-09-15T07:43:31.021Z,9.444022
2022-09-15T07:44:29.036Z,9.443934
2022-09-15T07:45:29.061Z,9.443809
2022-09-15T07:46:29.006Z,9.443797
2022-09-15T07:47:28.998Z,9.443799
2022-09-15T07:48:28.988Z,9.443770
2022-09-15T07:49:29.022Z,9.443850
2022-09-15T07:50:28.966Z,9.443812
2022-09-15T07:51:28.959Z,9.443738
2022-09-15T07:52:29.029Z,9.443734
2022-09-15T07:53:29.002Z,9.443722
2022-09-15T07:54:28.947Z,9.443834
2022-09-15T07:55:29.934Z,9.443865
2022-09-15T07:56:28.951Z,9.443751
2022-09-15T07:57:28.942Z,9.443707
2022-09-15T07:58:28.935Z,9.443777
2022-09-15T07:59:28.924Z,9.443765
2022-09-15T08:00:28.950Z,9.443810
2022-09-15T08:01:28.954Z,9.443801
2022-09-15T08:02:28.915Z,9.443740
2022-09-15T08:03:28.894Z,9.443754
2022-09-15T08:04:28.878Z,9.443793
2022-09-15T08:05:28.902Z,9.443781
2022-09-15T08:06:28.906Z,9.443757
2022-09-15T08:07:28.862Z,9.443758
2022-09-15T08:08:28.858Z,9.443803
2022-09-15T08:09:28.879Z,9.443792
2022-09-15T08:10:28.856Z,9.443753
2022-09-15T08:11:28.851Z,9.443770
2022-09-15T08:12:28.906Z,9.443753
2022-09-15T08:13:28.827Z,9.443755
2022-09-15T08:14:28.807Z,9.443703
2022-09-15T08:15:28.828Z,9.443767
2022-09-15T08:16:28.830Z,9.443755
2022-09-15T08:17:28.829Z,9.443727
2022-09-15T08:18:28.796Z,9.443728
2022-09-15T08:19:28.878Z,9.443733
2022-09-15T08:20:28.764Z,9.443772
2022-09-15T08:21:28.787Z,9.443779
2022-09-15T08:22:28.789Z,9.443757
2022-09-15T08:23:28.765Z,9.443759
2022-09-15T08:24:28.776Z,9.443754
2022-09-15T08:25:28.757Z,9.443748
2022-09-15T08:26:28.744Z,9.443762
2022-09-15T08:27:28.730Z,9.443734
2022-09-15T08:28:28.742Z,9.443697
2022-09-15T08:29:28.980Z,9.443732
2022-09-15T08:30:28.737Z,9.443742
2022-09-15T08:31:28.756Z,9.443776
2022-09-15T08:32:28.760Z,9.443746
2022-09-15T08:33:29.444Z,9.443819
2022-09-15T08:34:28.681Z,9.443696
2022-09-15T08:35:28.681Z,9.443739
2022-09-15T08:36:28.674Z,9.443788
2022-09-15T08:37:28.675Z,9.443793
2022-09-15T08:38:28.670Z,9.443788
2022-09-15T08:39:28.653Z,9.443768
2022-09-15T08:40:28.703Z,9.443782
2022-09-15T08:41:28.659Z,9.443799
2022-09-15T08:42:28.662Z,9.443800
2022-09-15T08:43:28.660Z,9.443771
2022-09-15T08:44:28.644Z,9.443766
2022-09-15T08:45:28.629Z,9.443739
2022-09-15T08:46:28.672Z,9.443726
2022-09-15T08:47:28.601Z,9.443743
2022-09-15T08:48:28.655Z,9.443752
2022-09-15T08:49:50.069Z,9.443745
2022-09-15T08:50:30.584Z,9.443740
2022-09-15T08:51:28.631Z,9.443750
2022-09-15T08:52:28.584Z,9.443759
2022-09-15T08:53:28.565Z,9.443785
2022-09-15T08:54:28.563Z,9.443783
2022-09-15T08:55:28.573Z,9.443750
2022-09-15T08:56:28.582Z,9.443789
2022-09-15T08:57:28.538Z,9.443658
2022-09-15T08:58:28.566Z,9.443744
2022-09-15T08:59:28.542Z,9.443777
2022-09-15T09:00:28.524Z,9.443744
2022-09-15T09:01:28.618Z,9.443774
2022-09-15T09:02:28.549Z,9.443748
2022-09-15T09:03:28.521Z,9.443730
2022-09-15T09:04:28.477Z,9.443716
2022-09-15T09:05:28.546Z,9.443683
2022-09-15T09:06:28.488Z,9.443686
2022-09-15T09:07:28.468Z,9.443579
2022-09-15T09:08:28.471Z,9.443694
2022-09-15T09:09:28.472Z,9.443824
2022-09-15T09:10:28.553Z,9.443766
2022-09-15T09:11:28.444Z,9.443678
2022-09-15T09:12:28.432Z,9.443718
2022-09-15T09:13:32.035Z,9.443743
2022-09-15T09:14:30.513Z,9.443788
2022-09-15T09:15:28.478Z,9.443794
2022-09-15T09:16:28.433Z,9.443743
2022-09-15T09:17:28.406Z,9.443737
2022-09-15T09:18:28.392Z,9.443638
2022-09-15T09:19:32.035Z,9.443722
2022-09-15T09:20:29.392Z,9.443736
2022-09-15T09:21:28.377Z,9.443607
2022-09-15T09:24:40.583Z,9.443531
2022-09-15T09:25:40.565Z,9.443616
2022-09-15T09:26:40.527Z,9.443667
2022-09-15T09:27:40.515Z,9.443660
2022-09-15T09:28:40.501Z,9.443617
2022-09-15T09:29:40.565Z,9.443600
2022-09-15T09:30:40.534Z,9.443660
2022-09-15T09:31:40.509Z,9.443700
2022-09-15T09:32:40.482Z,9.443717
2022-09-15T09:33:45.094Z,9.443704
2022-09-15T09:34:42.491Z,9.443632
2022-09-15T09:35:40.529Z,9.443560
2022-09-15T09:36:40.479Z,9.443582
2022-09-15T09:37:40.458Z,9.443608
2022-09-15T09:38:40.465Z,9.443480
2022-09-15T09:39:40.437Z,9.443664
2022-09-15T09:40:40.473Z,9.443715
2022-09-15T09:41:40.429Z,9.443688
2022-09-15T09:42:40.424Z,9.443635
2022-09-15T09:43:40.438Z,9.443597
2022-09-15T09:44:40.421Z,9.443632
2022-09-15T09:45:40.457Z,9.443676
2022-09-15T09:46:41.348Z,9.443752
2022-09-15T09:47:40.413Z,9.443744
2022-09-15T09:48:40.553Z,9.443666
2022-09-15T09:49:40.396Z,9.443696
2022-09-15T09:50:40.389Z,9.443676
2022-09-15T09:51:40.457Z,9.443660
2022-09-15T09:52:40.385Z,9.443655
2022-09-15T09:53:40.365Z,9.443723
2022-09-15T09:54:40.485Z,9.443723
2022-09-15T09:55:40.373Z,9.443667
2022-09-15T09:56:40.369Z,9.443682
2022-09-15T09:57:40.898Z,9.443689
2022-09-15T09:58:41.321Z,9.443684
2022-09-15T09:59:40.348Z,9.443688
2022-09-15T10:00:40.309Z,9.443687
2022-09-15T10:01:40.314Z,9.443680
2022-09-15T10:02:40.334Z,9.443707
2022-09-15T10:03:40.298Z,9.443726
2022-09-15T10:04:40.357Z,9.443678
2022-09-15T10:05:40.261Z,9.443680
2022-09-15T10:06:40.272Z,9.443693
2022-09-15T10:07:40.278Z,9.443709
2022-09-15T10:08:40.301Z,9.443711
2022-09-15T10:09:40.265Z,9.443699
2022-09-15T10:10:40.229Z,9.443781
2022-09-15T10:11:40.385Z,9.443719
2022-09-15T10:12:40.226Z,9.443707
2022-09-15T10:13:40.253Z,9.443712
2022-09-15T10:14:40.241Z,9.443692
2022-09-15T10:15:40.253Z,9.443687
2022-09-15T10:16:40.291Z,9.443688
2022-09-15T10:17:41.182Z,9.443720
2022-09-15T10:18:40.252Z,9.443707
2022-09-15T10:19:40.169Z,9.443738
2022-09-15T10:20:40.152Z,9.443741
2022-09-15T10:21:40.169Z,9.443680
2022-09-15T10:22:40.181Z,9.443697
2022-09-15T10:23:40.136Z,9.443712
2022-09-15T10:24:40.161Z,9.443726
2022-09-15T10:25:57.906Z,9.443708
2022-09-15T10:26:42.117Z,9.443791
2022-09-15T10:27:40.180Z,9.443682
2022-09-15T10:28:40.108Z,9.443720
2022-09-15T10:29:40.120Z,9.443753
2022-09-15T10:30:40.100Z,9.443757
2022-09-15T10:31:40.195Z,9.443811
2022-09-15T10:32:41.096Z,9.443473
2022-09-15T10:33:40.181Z,9.443402
2022-09-15T10:34:40.111Z,9.443719
2022-09-15T10:35:40.060Z,9.443962
2022-09-15T10:36:40.068Z,9.443858
2022-09-15T10:37:40.054Z,9.443842
2022-09-15T10:38:40.052Z,9.443827
2022-09-15T10:39:40.051Z,9.443745
2022-09-15T10:40:40.039Z,9.443752
2022-09-15T10:41:40.027Z,9.443795
2022-09-15T10:42:40.029Z,9.443790
2022-09-15T10:43:40.056Z,9.443952
2022-09-15T10:44:40.079Z,9.443832
2022-09-15T10:45:40.221Z,9.443694
2022-09-15T10:46:39.988Z,9.443719
2022-09-15T10:47:40.020Z,9.443589
2022-09-15T10:48:39.976Z,9.443472
2022-09-15T10:49:39.974Z,9.443631
2022-09-15T10:50:40.983Z,9.443540
2022-09-15T10:51:39.956Z,9.443598
2022-09-15T10:52:39.951Z,9.443725
2022-09-15T10:53:39.962Z,9.443582
2022-09-15T10:54:39.938Z,9.443591
2022-09-15T10:55:52.184Z,9.443573
2022-09-15T10:56:41.961Z,9.443555
2022-09-15T10:57:40.648Z,9.443713
2022-09-15T10:58:42.278Z,9.443632
2022-09-15T10:59:40.918Z,9.443666
2022-09-15T11:00:40.016Z,9.443705
2022-09-15T11:01:39.937Z,9.443625
2022-09-15T11:02:40.019Z,9.443616
2022-09-15T11:03:39.957Z,9.443681
2022-09-15T11:04:39.877Z,9.443656
2022-09-15T11:05:40.008Z,9.443742
2022-09-15T11:06:39.911Z,9.443684
2022-09-15T11:07:39.869Z,9.443630
2022-09-15T11:08:39.879Z,9.443652
2022-09-15T11:09:39.856Z,9.443612
2022-09-15T11:10:39.851Z,9.443624
2022-09-15T11:11:39.888Z,9.443643
2022-09-15T11:12:39.884Z,9.443718
2022-09-15T11:13:39.848Z,9.443693
2022-09-15T11:14:39.835Z,9.443712
2022-09-15T11:15:39.811Z,9.443907
2022-09-15T11:16:39.941Z,9.443741
2022-09-15T11:17:39.920Z,9.443720
2022-09-15T11:18:39.891Z,9.443708
2022-09-15T11:19:39.813Z,9.443743
2022-09-15T11:20:39.785Z,9.443668
2022-09-15T11:21:39.825Z,9.443617
2022-09-15T11:22:39.784Z,9.443709
2022-09-15T11:23:39.755Z,9.443690
2022-09-15T11:24:39.766Z,9.443735
2022-09-15T11:25:39.748Z,9.443647
2022-09-15T11:26:39.757Z,9.443609
2022-09-15T11:27:39.864Z,9.443571
2022-09-15T11:28:39.726Z,9.443581
2022-09-15T11:29:39.787Z,9.443587
2022-09-15T11:30:42.446Z,9.443656
2022-09-15T11:31:40.230Z,9.443594
2022-09-15T11:32:39.740Z,9.443568
2022-09-15T11:33:40.255Z,9.443581
2022-09-15T11:34:39.774Z,9.443658
2022-09-15T11:35:39.691Z,9.443679
2022-09-15T11:36:39.666Z,9.443680
2022-09-15T11:37:39.773Z,9.443676
2022-09-15T11:38:39.674Z,9.443682
2022-09-15T11:39:39.657Z,9.443663
2022-09-15T11:40:39.662Z,9.443679
2022-09-15T11:41:39.677Z,9.443689
2022-09-15T11:42:39.641Z,9.443815
2022-09-15T11:43:39.645Z,9.443608
2022-09-15T11:44:39.716Z,9.443683
2022-09-15T11:45:39.625Z,9.443624
2022-09-15T11:46:39.635Z,9.443697
2022-09-15T11:47:39.614Z,9.443716
2022-09-15T11:48:39.611Z,9.443681